LEBA/ODB METAR and TAF weather

Enter ICAO airport designator
Station Type Date Time Source
LEBA METAR 2022/11/30 10:30 UTC NOAA

LEBA 301030Z 07003KT 030V100 CAVOK 10/04 Q1018


Station Type Date Time Source
LEBA Decoded METAR 2022/11/30 10:30 UTC NOAA

Cordoba / Aeropuerto, Spain (LEBA) 37-51N 004-51W 92M
Nov 30, 2022 - 05:30 AM EST / 2022.11.30 1030 UTC
Wind: from the ENE (070 degrees) at 3 MPH (3 KT) (direction variable):0
Visibility: greater than 7 mile(s):0
Temperature: 50 F (10 C)
Dew Point: 39 F (4 C)
Relative Humidity: 66%
Pressure (altimeter): 30.06 in. Hg (1018 hPa)
ob: LEBA 301030Z 07003KT 030V100 CAVOK 10/04 Q1018
cycle: 10

Station Type Date Time Source
LEBA TAF 2022/11/30 09:27 UTC NOAA

TAF LEBA 300800Z 3009/0109 08005KT CAVOK TX17/3015Z TN03/0106Z

Example: see airport list